Terminal Aerodrome Forecast
Issued by NWS

Home | Current Version | Previous Version | Text Only | Print | Product List | Glossary On
Versions: 1 2 3 4 5 6 7 8 9 10 11 12 13 14 15 16 17 18 19
000
FTUS45 KRIW 282300
TAFCPR
TAF
KCPR 282330Z 2900/2924 02013KT 2SM RA BR OVC005
     FM290300 06010G15KT 4SM SHRA VCTS SCT012 OVC025CB
     FM290800 04006KT 4SM SHRA BR SCT008 OVC020
     FM291600 VRB06KT P6SM SCT015 OVC045=

USA.gov is the U.S. government's official web portal to all federal, state and local government web resources and services.